Time;durP1;ratioP1;P1;durP2;ratioP2;P2;SDS_P1;SDS_P2;PMS_P1;PMS_P2;Temp;Humidity;BMP_temperature;BMP_pressure;BME280_temperature;BME280_humidity;BME280_pressure;Samples;Min_cycle;Max_cycle;Signal;HPM_P1;HPM_P2
2022/06/18 00:01:34;;;;;;;8.18;3.72;;;;;;;21.06;61.32;101850.91;5047843;28;20433;-75
2022/06/18 00:04:11;;;;;;;10.23;3.40;;;;;;;21.03;61.45;101845.84;5049257;28;20036;-74
2022/06/18 00:06:50;;;;;;;11.13;3.53;;;;;;;21.00;61.84;101848.94;5049042;28;20029;-74
2022/06/18 00:09:16;;;;;;;7.13;3.30;;;;;;;20.93;61.95;101850.72;5049301;28;20392;-75
2022/06/18 00:14:26;;;;;;;12.38;3.80;;;;;;;20.86;62.61;101849.75;5049130;28;20512;-75
2022/06/18 00:16:51;;;;;;;9.15;3.50;;;;;;;20.84;62.77;101857.19;5049010;28;20120;-75
2022/06/18 00:19:17;;;;;;;9.73;3.83;;;;;;;20.84;62.64;101849.09;5048838;28;20025;-75
2022/06/18 00:21:42;;;;;;;9.05;3.00;;;;;;;20.83;62.86;101850.97;5048961;28;20418;-74
2022/06/18 00:24:15;;;;;;;12.68;3.65;;;;;;;20.82;62.79;101845.75;5049309;28;20082;-74
2022/06/18 00:26:40;;;;;;;11.52;3.40;;;;;;;20.78;63.02;101846.09;5049078;28;20032;-75
2022/06/18 00:29:10;;;;;;;12.77;3.38;;;;;;;20.75;63.31;101848.31;5049737;28;20174;-74
2022/06/18 00:31:36;;;;;;;16.03;3.57;;;;;;;20.73;63.24;101851.19;5052798;28;20100;-75
2022/06/18 00:34:01;;;;;;;8.63;3.38;;;;;;;20.76;63.21;101852.72;5052557;28;20060;-74
2022/06/18 00:36:26;;;;;;;15.85;4.30;;;;;;;20.74;62.72;101849.34;5052668;28;20017;-75
2022/06/18 00:38:52;;;;;;;9.52;3.53;;;;;;;20.74;63.19;101850.19;5052760;28;20120;-75
2022/06/18 00:41:24;;;;;;;11.43;3.30;;;;;;;20.75;63.05;101846.47;5052940;28;20029;-75
2022/06/18 00:43:55;;;;;;;10.50;3.63;;;;;;;20.77;62.35;101836.31;5052978;28;20112;-74
2022/06/18 00:46:30;;;;;;;6.70;3.55;;;;;;;20.82;62.16;101834.91;5052918;28;20017;-75
2022/06/18 00:49:09;;;;;;;8.85;3.28;;;;;;;20.87;61.54;101840.59;5051068;28;20024;-76
2022/06/18 00:51:41;;;;;;;11.63;3.85;;;;;;;20.93;61.28;101840.72;5052614;28;20045;-74
2022/06/18 00:54:22;;;;;;;14.63;3.75;;;;;;;21.01;61.03;101828.16;5052491;28;20108;-74
2022/06/18 00:57:16;;;;;;;15.90;3.50;;;;;;;21.02;61.08;101849.63;5052251;28;20079;-74
2022/06/18 00:59:45;;;;;;;8.05;3.25;;;;;;;21.02;60.73;101840.63;5052364;28;20121;-74
2022/06/18 01:02:16;;;;;;;12.70;3.40;;;;;;;21.14;59.77;101837.31;5051894;28;20020;-73
2022/06/18 01:04:42;;;;;;;14.55;3.55;;;;;;;21.21;59.25;101841.97;5051956;28;20104;-76
2022/06/18 01:07:26;;;;;;;12.85;3.95;;;;;;;21.29;58.98;101850.03;5051841;28;20112;-75
2022/06/18 01:09:52;;;;;;;17.42;3.50;;;;;;;21.32;59.02;101846.94;5052313;28;20029;-73
2022/06/18 01:12:19;;;;;;;10.48;3.75;;;;;;;21.30;58.60;101841.72;5051962;28;20028;-74
2022/06/18 01:14:46;;;;;;;14.38;3.40;;;;;;;21.27;59.14;101843.94;5051457;28;20032;-74
2022/06/18 01:17:11;;;;;;;13.57;3.40;;;;;;;21.23;59.30;101843.47;5052054;28;20068;-77
2022/06/18 01:19:43;;;;;;;11.48;4.10;;;;;;;21.23;59.67;101840.78;5050128;28;20021;-75
2022/06/18 01:22:46;;;;;;;14.93;3.83;;;;;;;21.20;60.14;101840.28;5051562;28;20373;-75
2022/06/18 01:25:12;;;;;;;9.05;3.40;;;;;;;21.10;60.38;101837.88;5051656;28;20211;-75
2022/06/18 01:27:39;;;;;;;17.80;4.43;;;;;;;21.01;61.42;101844.38;5051870;28;20053;-75
2022/06/18 01:30:11;;;;;;;11.57;3.42;;;;;;;20.88;61.77;101843.13;5050434;28;20035;-75
2022/06/18 01:32:37;;;;;;;13.65;4.45;;;;;;;20.76;62.26;101840.03;5052025;28;20175;-75
2022/06/18 01:35:04;;;;;;;13.40;4.15;;;;;;;20.65;63.24;101834.19;5051647;28;20033;-75
2022/06/18 01:37:31;;;;;;;15.68;4.22;;;;;;;20.53;63.90;101844.59;5050974;28;20130;-76
2022/06/18 01:39:56;;;;;;;15.85;3.72;;;;;;;20.38;64.61;101839.97;5051163;28;20120;-76
2022/06/18 01:42:29;;;;;;;12.88;4.32;;;;;;;20.25;65.37;101826.22;5050963;28;20108;-75
2022/06/18 01:44:59;;;;;;;12.30;4.22;;;;;;;20.12;65.95;101826.78;5049797;28;20325;-74
2022/06/18 01:47:32;;;;;;;13.25;3.88;;;;;;;19.98;66.51;101824.84;5051388;28;20398;-74
2022/06/18 01:50:13;;;;;;;14.30;4.32;;;;;;;19.84;67.77;101827.28;5051506;28;20025;-74
2022/06/18 01:52:45;;;;;;;15.55;4.45;;;;;;;19.72;68.28;101831.34;5049751;28;20094;-75
2022/06/18 01:55:15;;;;;;;12.60;4.45;;;;;;;19.61;68.67;101826.34;5052114;28;20475;-75
2022/06/18 01:57:47;;;;;;;20.58;4.63;;;;;;;19.48;70.01;101833.16;5051090;28;20052;-75
2022/06/18 02:00:18;;;;;;;18.98;4.90;;;;;;;19.35;70.59;101830.16;5051816;28;20021;-75
2022/06/18 02:02:45;;;;;;;17.27;4.40;;;;;;;19.24;71.56;101841.31;5049945;28;20028;-74
2022/06/18 02:05:13;;;;;;;16.25;5.03;;;;;;;19.14;71.97;101836.13;5051032;28;20070;-75
2022/06/18 02:07:39;;;;;;;14.27;4.55;;;;;;;19.02;72.64;101838.31;5051371;28;20047;-75
2022/06/18 02:10:18;;;;;;;12.40;4.45;;;;;;;18.92;73.28;101843.06;5051305;28;20045;-74
2022/06/18 02:12:44;;;;;;;14.35;5.22;;;;;;;18.81;73.70;101844.19;5051176;28;20020;-75
2022/06/18 02:15:18;;;;;;;16.13;4.80;;;;;;;18.71;74.34;101838.16;5050517;28;20139;-74
2022/06/18 02:17:44;;;;;;;14.93;5.35;;;;;;;18.63;74.96;101853.31;5050774;28;20028;-75
2022/06/18 02:20:19;;;;;;;16.38;5.05;;;;;;;18.57;75.50;101855.81;5050354;28;20164;-75
2022/06/18 02:22:47;;;;;;;16.60;5.45;;;;;;;18.49;75.89;101851.25;5050267;28;20060;-75
2022/06/18 02:25:15;;;;;;;19.83;5.70;;;;;;;18.40;76.59;101855.78;5050386;28;20096;-74
2022/06/18 02:27:41;;;;;;;17.83;5.10;;;;;;;18.31;77.35;101852.22;5050094;28;20059;-75
2022/06/18 02:30:15;;;;;;;19.50;5.20;;;;;;;18.23;77.66;101856.78;5050291;28;20433;-75
2022/06/18 02:32:50;;;;;;;24.67;5.72;;;;;;;18.14;78.36;101850.53;5050472;28;20021;-74
2022/06/18 02:35:16;;;;;;;15.23;5.40;;;;;;;18.05;78.64;101848.81;5050830;28;20048;-75
2022/06/18 02:37:42;;;;;;;19.77;5.00;;;;;;;17.97;79.35;101857.69;5050164;28;20061;-75
2022/06/18 02:40:22;;;;;;;14.13;5.28;;;;;;;17.89;80.18;101854.97;5050127;28;20041;-77
2022/06/18 02:42:49;;;;;;;17.83;5.47;;;;;;;17.80;80.62;101849.53;5050197;28;20029;-76
2022/06/18 02:45:17;;;;;;;17.60;5.18;;;;;;;17.72;80.96;101854.91;5048349;28;20040;-75
2022/06/18 02:47:43;;;;;;;19.63;5.30;;;;;;;17.66;81.83;101852.84;5049910;28;20025;-75
2022/06/18 02:50:14;;;;;;;20.42;6.15;;;;;;;17.58;82.53;101852.81;5050474;28;20039;-75
2022/06/18 02:52:43;;;;;;;15.00;5.45;;;;;;;17.50;83.04;101853.63;5050216;28;20032;-76
2022/06/18 02:55:27;;;;;;;19.27;6.47;;;;;;;17.42;83.41;101850.84;5050953;28;20078;-77
2022/06/18 02:58:22;;;;;;;18.45;5.78;;;;;;;17.35;84.13;101850.66;5050050;28;20379;-76
2022/06/18 03:00:58;;;;;;;20.30;5.60;;;;;;;17.28;84.69;101849.63;5049707;28;20075;-76
2022/06/18 03:03:28;;;;;;;20.33;6.10;;;;;;;17.23;84.86;101851.94;5050065;28;20426;-77
2022/06/18 03:05:54;;;;;;;18.50;6.50;;;;;;;17.18;85.22;101857.81;5050165;28;20028;-77
2022/06/18 03:08:20;;;;;;;26.70;5.55;;;;;;;17.12;85.77;101861.09;5050123;28;20299;-76
2022/06/18 03:13:30;;;;;;;21.60;6.25;;;;;;;17.01;87.03;101859.50;5050176;28;20120;-76
2022/06/18 03:15:56;;;;;;;21.83;6.47;;;;;;;16.97;87.63;101860.00;5049614;28;20108;-76
2022/06/18 03:18:25;;;;;;;16.08;5.68;;;;;;;16.91;87.92;101856.94;5050063;28;20122;-76
2022/06/18 03:21:09;;;;;;;14.10;5.65;;;;;;;16.86;88.24;101859.19;5049719;28;20119;-75
2022/06/18 03:23:36;;;;;;;22.33;6.68;;;;;;;16.84;88.85;101857.66;5050154;28;20025;-74
2022/06/18 03:26:02;;;;;;;19.73;6.03;;;;;;;16.80;89.03;101859.00;5048421;28;20326;-74
2022/06/18 03:28:28;;;;;;;19.05;6.40;;;;;;;16.76;89.45;101861.13;5050020;28;20055;-74
2022/06/18 03:30:53;;;;;;;21.90;7.05;;;;;;;16.72;90.12;101860.59;5050206;28;20104;-75
2022/06/18 03:33:19;;;;;;;25.60;7.25;;;;;;;16.69;90.45;101862.75;5049639;28;20078;-74
2022/06/18 03:35:47;;;;;;;19.65;6.50;;;;;;;16.66;90.69;101857.69;5049762;28;20035;-75
2022/06/18 03:38:15;;;;;;;17.05;6.05;;;;;;;16.63;90.58;101861.53;5049774;28;20017;-75
2022/06/18 03:40:41;;;;;;;17.85;6.10;;;;;;;16.62;90.87;101859.84;5049545;28;20472;-75
2022/06/18 03:43:07;;;;;;;22.02;6.78;;;;;;;16.61;91.19;101860.00;5049533;28;20033;-75
2022/06/18 03:45:40;;;;;;;16.23;6.30;;;;;;;16.57;91.07;101865.69;5048212;28;20028;-74
2022/06/18 03:48:07;;;;;;;20.40;6.55;;;;;;;16.54;91.41;101859.75;5050301;28;20429;-74
2022/06/18 03:50:33;;;;;;;34.70;7.07;;;;;;;16.52;91.81;101856.38;5049976;28;20067;-77
2022/06/18 03:52:59;;;;;;;19.08;6.80;;;;;;;16.51;92.09;101860.94;5049634;28;20032;-75
2022/06/18 03:55:25;;;;;;;27.48;7.05;;;;;;;16.50;91.66;101861.91;5050161;28;20108;-74
2022/06/18 03:57:51;;;;;;;27.02;7.10;;;;;;;16.49;91.79;101856.69;5049407;28;20052;-76
2022/06/18 04:00:22;;;;;;;15.23;6.38;;;;;;;16.48;92.16;101863.91;5049784;28;20028;-74
2022/06/18 04:02:48;;;;;;;31.38;6.72;;;;;;;16.47;92.53;101866.75;5049954;28;20040;-75
2022/06/18 04:05:14;;;;;;;22.17;6.97;;;;;;;16.45;92.92;101866.06;5052407;28;20033;-77
2022/06/18 04:07:41;;;;;;;21.60;6.53;;;;;;;16.43;93.01;101863.53;5051973;28;20086;-75
2022/06/18 04:10:08;;;;;;;21.88;6.78;;;;;;;16.41;93.32;101862.84;5053356;28;20442;-75
2022/06/18 04:12:34;;;;;;;24.50;6.65;;;;;;;16.42;93.15;101871.72;5053713;28;20058;-75
2022/06/18 04:14:59;;;;;;;21.58;6.35;;;;;;;16.42;93.20;101877.97;5053127;28;20377;-74
2022/06/18 04:17:25;;;;;;;19.83;6.50;;;;;;;16.42;93.09;101869.91;5053396;28;20084;-75
2022/06/18 04:19:50;;;;;;;17.27;6.22;;;;;;;16.43;93.34;101866.19;5052187;28;20128;-75
2022/06/18 04:22:16;;;;;;;20.88;7.28;;;;;;;16.45;93.61;101872.28;5053211;28;20039;-74
2022/06/18 04:24:41;;;;;;;25.55;6.93;;;;;;;16.47;93.88;101864.06;5052969;28;20454;-75
2022/06/18 04:27:07;;;;;;;24.85;6.55;;;;;;;16.48;93.65;101866.59;5035062;28;20025;-77
2022/06/18 04:29:33;;;;;;;15.20;6.90;;;;;;;16.49;93.30;101862.91;5053059;28;20100;-75
2022/06/18 04:31:59;;;;;;;20.98;6.53;;;;;;;16.51;93.31;101863.63;5052854;28;20086;-74
2022/06/18 04:34:26;;;;;;;22.65;7.55;;;;;;;16.54;93.32;101862.44;5053143;28;20037;-75
2022/06/18 04:36:51;;;;;;;23.33;7.07;;;;;;;16.55;93.34;101861.44;5051823;28;20021;-75
2022/06/18 04:39:17;;;;;;;21.90;6.05;;;;;;;16.56;93.46;101860.47;5051551;28;20032;-77
2022/06/18 04:41:42;;;;;;;23.30;6.75;;;;;;;16.58;93.44;101866.50;5053106;28;20033;-75
2022/06/18 04:44:08;;;;;;;15.77;6.25;;;;;;;16.59;93.36;101859.31;5052872;28;20453;-75
2022/06/18 04:46:33;;;;;;;17.05;6.57;;;;;;;16.62;93.17;101859.00;5052791;28;20062;-77
2022/06/18 04:48:59;;;;;;;23.20;5.80;;;;;;;16.66;93.15;101865.75;5053205;28;20037;-77
2022/06/18 04:51:24;;;;;;;18.42;5.93;;;;;;;16.70;92.66;101862.59;5053025;28;20029;-76
2022/06/18 04:53:50;;;;;;;23.77;6.38;;;;;;;16.77;92.72;101862.00;5052702;28;20090;-75
2022/06/18 04:56:16;;;;;;;17.52;6.60;;;;;;;16.80;91.61;101865.19;5052636;28;20024;-75
2022/06/18 04:58:41;;;;;;;21.08;6.25;;;;;;;16.82;91.12;101865.88;5052518;28;20041;-75
2022/06/18 05:01:07;;;;;;;19.17;6.28;;;;;;;16.86;91.22;101863.75;5052386;28;20025;-75
2022/06/18 05:03:33;;;;;;;19.00;6.00;;;;;;;16.89;90.68;101864.28;5052258;28;20372;-74
2022/06/18 05:05:59;;;;;;;26.80;7.00;;;;;;;16.91;90.38;101858.75;5052470;28;20021;-75
2022/06/18 05:08:27;;;;;;;19.73;6.80;;;;;;;16.94;91.05;101855.75;5052145;28;20032;-74
2022/06/18 05:10:52;;;;;;;21.88;6.60;;;;;;;17.02;90.41;101869.28;5051994;28;20029;-75
2022/06/18 05:13:18;;;;;;;18.27;5.95;;;;;;;17.06;90.54;101865.28;5052545;28;20384;-74
2022/06/18 05:15:45;;;;;;;25.05;6.72;;;;;;;17.15;90.65;101871.53;5049756;28;20036;-76
2022/06/18 05:18:16;;;;;;;24.25;6.43;;;;;;;17.22;89.83;101869.91;5051949;28;20120;-75
2022/06/18 05:20:42;;;;;;;24.20;6.57;;;;;;;17.28;89.71;101871.13;5051726;28;20044;-74
2022/06/18 05:23:10;;;;;;;16.13;6.32;;;;;;;17.37;89.81;101872.03;5050168;28;20096;-75
2022/06/18 05:25:35;;;;;;;25.75;6.57;;;;;;;17.43;88.93;101874.06;5051991;28;20040;-75
2022/06/18 05:28:01;;;;;;;18.40;6.45;;;;;;;17.49;89.27;101867.22;5051948;28;20052;-77
2022/06/18 05:30:27;;;;;;;20.40;6.10;;;;;;;17.57;88.49;101875.31;5051848;28;20461;-76
2022/06/18 05:32:53;;;;;;;24.30;7.05;;;;;;;17.64;88.19;101871.00;5051667;28;20029;-75
2022/06/18 05:35:19;;;;;;;12.80;5.93;;;;;;;17.71;87.84;101874.72;5051859;28;20154;-75
2022/06/18 05:37:44;;;;;;;20.02;6.57;;;;;;;17.78;87.29;101869.56;5051448;28;20119;-75
2022/06/18 05:40:12;;;;;;;14.63;6.57;;;;;;;17.80;87.01;101872.94;5051618;28;20029;-75
2022/06/18 05:42:37;;;;;;;21.50;5.90;;;;;;;17.86;86.85;101868.75;5051342;28;20032;-74
2022/06/18 05:45:04;;;;;;;19.10;5.88;;;;;;;17.94;86.90;101869.66;5051793;28;20021;-75
2022/06/18 05:47:31;;;;;;;21.30;6.25;;;;;;;18.07;86.69;101871.03;5051314;28;20033;-75
2022/06/18 05:49:57;;;;;;;20.95;6.28;;;;;;;18.20;85.90;101871.41;5051666;28;20088;-75
2022/06/18 05:52:24;;;;;;;22.52;6.50;;;;;;;18.33;85.19;101866.41;5051525;28;20037;-75
2022/06/18 05:54:52;;;;;;;20.25;6.05;;;;;;;18.46;84.23;101857.81;5052132;28;20331;-76
2022/06/18 05:57:19;;;;;;;16.20;5.45;;;;;;;18.56;83.02;101864.91;5051496;28;20532;-74
2022/06/18 05:59:44;;;;;;;17.52;5.82;;;;;;;18.64;83.59;101873.81;5051767;28;20056;-74
2022/06/18 06:02:11;;;;;;;18.88;5.55;;;;;;;18.79;84.08;101874.00;5051292;28;20063;-77
2022/06/18 06:04:39;;;;;;;15.65;5.70;;;;;;;19.00;82.10;101872.69;5051074;28;20039;-75
2022/06/18 06:07:09;;;;;;;18.92;5.90;;;;;;;19.12;79.58;101876.75;5051213;28;20068;-75
2022/06/18 06:12:18;;;;;;;13.60;5.20;;;;;;;19.30;79.68;101887.34;5051760;28;20132;-75
2022/06/18 06:14:44;;;;;;;15.88;5.55;;;;;;;19.38;79.40;101891.88;5052052;28;20143;-75
2022/06/18 06:17:15;;;;;;;12.57;5.43;;;;;;;19.51;78.82;101892.19;5053256;28;20029;-75
2022/06/18 06:19:41;;;;;;;10.82;5.07;;;;;;;19.66;78.02;101883.34;5051505;28;20029;-75
2022/06/18 06:22:07;;;;;;;16.15;5.30;;;;;;;19.84;77.54;101878.59;5052048;28;20029;-75
2022/06/18 06:24:32;;;;;;;13.25;4.82;;;;;;;20.03;75.89;101889.97;5052432;28;20476;-75
2022/06/18 06:26:57;;;;;;;20.38;4.70;;;;;;;20.08;73.73;101893.84;5050693;28;20429;-75
2022/06/18 06:29:23;;;;;;;10.98;4.40;;;;;;;20.19;74.77;101899.88;5051234;28;20029;-74
2022/06/18 06:31:48;;;;;;;16.80;5.00;;;;;;;20.34;74.16;101899.97;5052027;28;20413;-75
2022/06/18 06:34:14;;;;;;;14.82;4.82;;;;;;;20.50;73.90;101904.44;5051055;28;20419;-75
2022/06/18 06:36:39;;;;;;;22.85;5.07;;;;;;;20.57;71.76;101903.53;5050652;28;20033;-75
2022/06/18 06:39:04;;;;;;;15.13;4.65;;;;;;;20.56;72.57;101909.13;5049737;28;20039;-75
2022/06/18 06:41:31;;;;;;;17.02;4.50;;;;;;;20.64;71.88;101911.75;5050930;28;20029;-75
2022/06/18 06:43:57;;;;;;;12.57;4.18;;;;;;;20.77;70.16;101908.47;5051254;28;20037;-75
2022/06/18 06:46:22;;;;;;;17.48;5.10;;;;;;;20.79;70.46;101909.13;5051232;28;20075;-75
2022/06/18 06:48:48;;;;;;;15.85;4.93;;;;;;;20.84;70.42;101908.59;5051205;28;20035;-75
2022/06/18 06:51:27;;;;;;;13.57;5.15;;;;;;;20.94;69.21;101907.34;5051088;28;20399;-75
2022/06/18 06:53:52;;;;;;;11.20;4.13;;;;;;;21.11;70.08;101912.59;5049813;28;20025;-75
2022/06/18 06:59:03;;;;;;;15.00;4.68;;;;;;;21.48;67.96;101916.28;5051741;28;20074;-74
2022/06/18 07:01:29;;;;;;;11.90;4.40;;;;;;;21.47;67.39;101915.44;5050609;28;20029;-74
2022/06/18 07:03:55;;;;;;;16.73;4.22;;;;;;;21.43;67.43;101924.13;5050428;28;20141;-74
2022/06/18 07:06:20;;;;;;;13.73;4.20;;;;;;;21.42;67.92;101926.00;5050592;28;20313;-74
2022/06/18 07:08:45;;;;;;;12.98;4.38;;;;;;;21.39;68.45;101925.53;5050245;28;20070;-74
2022/06/18 07:11:13;;;;;;;12.10;4.35;;;;;;;21.39;68.02;101929.09;5049055;28;20427;-74
2022/06/18 07:13:38;;;;;;;13.63;4.57;;;;;;;21.42;68.36;101919.72;5050956;28;20029;-74
2022/06/18 07:16:07;;;;;;;15.32;4.65;;;;;;;21.49;67.40;101928.81;5050825;28;20403;-74
2022/06/18 07:18:35;;;;;;;12.13;4.13;;;;;;;21.57;67.74;101920.63;5050499;28;20120;-75
2022/06/18 07:21:04;;;;;;;14.73;4.32;;;;;;;21.75;66.88;101922.97;5049854;28;20058;-75
2022/06/18 07:23:29;;;;;;;14.13;3.88;;;;;;;21.90;66.32;101924.81;5050555;28;20341;-76
2022/06/18 07:25:55;;;;;;;16.63;4.75;;;;;;;21.95;66.32;101925.94;5049291;28;20123;-74
2022/06/18 07:28:20;;;;;;;10.65;4.50;;;;;;;22.14;67.24;101924.53;5050325;28;20152;-75
2022/06/18 07:30:46;;;;;;;10.98;3.67;;;;;;;22.45;66.36;101930.72;5050516;28;20067;-74
2022/06/18 07:33:14;;;;;;;14.73;4.18;;;;;;;22.67;62.88;101926.16;5050160;28;20025;-77
2022/06/18 07:35:40;;;;;;;9.90;3.88;;;;;;;22.83;63.71;101920.50;5049329;28;20070;-75
2022/06/18 07:38:06;;;;;;;15.65;4.43;;;;;;;22.96;63.19;101922.50;5050408;28;20032;-74
2022/06/18 07:40:35;;;;;;;12.98;4.20;;;;;;;23.11;62.53;101917.00;5051734;28;20356;-76
2022/06/18 07:43:30;;;;;;;6.18;3.30;;;;;;;23.32;62.56;101917.97;5054365;28;20023;-76
2022/06/18 07:45:56;;;;;;;11.63;3.45;;;;;;;23.52;61.16;101915.41;5054490;28;20128;-77
2022/06/18 07:48:22;;;;;;;14.30;4.10;;;;;;;23.75;60.08;101918.69;5054280;28;20433;-77
2022/06/18 07:50:48;;;;;;;9.02;3.47;;;;;;;23.96;60.44;101918.81;5037506;28;20055;-77
2022/06/18 07:53:20;;;;;;;16.30;3.83;;;;;;;24.04;58.34;101921.38;5054060;28;20409;-77
2022/06/18 07:55:45;;;;;;;12.35;3.50;;;;;;;24.11;57.12;101914.09;5054328;28;20021;-77
2022/06/18 07:58:11;;;;;;;10.20;3.50;;;;;;;23.97;57.16;101915.06;5052092;28;20056;-77
2022/06/18 08:00:39;;;;;;;13.25;4.57;;;;;;;23.88;58.51;101914.38;5053635;28;20063;-77
2022/06/18 08:03:07;;;;;;;15.23;3.30;;;;;;;24.02;58.68;101910.69;5054076;28;20024;-77
2022/06/18 08:05:32;;;;;;;10.55;3.33;;;;;;;24.29;57.95;101919.78;5052242;28;20421;-76
2022/06/18 08:07:58;;;;;;;14.07;3.95;;;;;;;24.51;57.00;101919.63;5054346;28;20036;-75
2022/06/18 08:10:23;;;;;;;11.10;3.28;;;;;;;24.62;57.62;101907.34;5053561;28;20032;-76
2022/06/18 08:12:49;;;;;;;9.57;3.25;;;;;;;24.62;57.91;101910.88;5053628;28;20113;-76
2022/06/18 08:15:14;;;;;;;10.85;2.95;;;;;;;24.63;56.63;101907.13;5053681;28;20036;-75
2022/06/18 08:17:40;;;;;;;9.55;2.65;;;;;;;24.71;55.99;101910.72;5053858;28;20111;-76
2022/06/18 08:20:07;;;;;;;9.68;2.70;;;;;;;24.60;57.98;101904.81;5053490;28;20401;-76
2022/06/18 08:22:34;;;;;;;5.38;2.40;;;;;;;24.64;58.70;101897.91;5052286;28;20302;-76
2022/06/18 08:25:00;;;;;;;9.50;2.50;;;;;;;24.83;59.29;101898.16;5053544;28;20071;-75
2022/06/18 08:27:26;;;;;;;9.57;2.90;;;;;;;25.00;57.97;101898.56;5053440;28;20115;-76
2022/06/18 08:29:51;;;;;;;6.53;2.42;;;;;;;25.21;56.33;101904.84;5053100;28;20056;-74
2022/06/18 08:32:17;;;;;;;11.63;2.95;;;;;;;25.23;55.36;101900.88;5053740;28;20126;-72
2022/06/18 08:34:42;;;;;;;13.52;3.47;;;;;;;25.43;55.76;101903.56;5053280;28;20114;-73
2022/06/18 08:37:08;;;;;;;10.70;3.17;;;;;;;25.62;54.68;101895.59;5051839;28;20029;-75
2022/06/18 08:39:35;;;;;;;11.05;3.20;;;;;;;25.89;53.81;101896.31;5053068;28;20047;-74
2022/06/18 08:42:10;;;;;;;11.88;3.15;;;;;;;25.92;53.56;101895.06;5068185;28;20187;-74
2022/06/18 08:45:00;;;;;;;8.07;2.88;;;;;;;26.19;52.81;101890.34;5051884;28;20028;-74
2022/06/18 08:47:46;;;;;;;9.30;2.92;;;;;;;26.58;52.97;101891.13;5053114;28;20080;-77
2022/06/18 08:50:30;;;;;;;8.50;3.88;;;;;;;26.95;48.64;101887.72;5053054;28;20016;-75
2022/06/18 08:53:29;;;;;;;13.20;3.60;;;;;;;27.46;48.98;101892.09;5051636;28;20044;-73
2022/06/18 08:56:04;;;;;;;10.40;3.15;;;;;;;27.88;47.87;101878.56;5053034;28;20025;-72
2022/06/18 08:58:54;;;;;;;10.07;2.72;;;;;;;28.51;45.34;101895.59;5051172;28;20075;-75
2022/06/18 09:01:59;;;;;;;12.63;3.03;;;;;;;29.23;44.01;101899.31;5053267;28;20020;-75
2022/06/18 09:04:39;;;;;;;8.90;3.10;;;;;;;29.71;42.32;101890.78;5051052;28;20017;-75
2022/06/18 09:07:11;;;;;;;8.07;2.10;;;;;;;30.27;39.46;101892.97;5051215;28;20029;-75
2022/06/18 09:09:57;;;;;;;11.65;2.65;;;;;;;30.53;39.06;101894.31;5052921;28;20037;-76
2022/06/18 09:12:29;;;;;;;5.32;2.28;;;;;;;30.73;39.05;101893.81;5052817;28;20211;-78
2022/06/18 09:15:03;;;;;;;8.88;2.88;;;;;;;30.84;36.90;101892.06;5052955;28;20028;-75
2022/06/18 09:17:37;;;;;;;6.32;2.17;;;;;;;31.25;37.51;101889.97;5052738;28;20451;-77
2022/06/18 09:20:23;;;;;;;8.63;2.45;;;;;;;31.70;36.48;101881.78;5052200;28;20024;-75
2022/06/18 09:22:54;;;;;;;6.40;2.13;;;;;;;31.94;36.12;101885.91;5052219;28;20031;-75
2022/06/18 09:25:26;;;;;;;10.32;1.60;;;;;;;32.22;35.72;101875.78;5052379;28;20111;-75
2022/06/18 09:27:57;;;;;;;4.45;1.80;;;;;;;32.38;35.62;101875.91;5052260;28;20105;-75
2022/06/18 09:30:30;;;;;;;5.68;1.73;;;;;;;32.68;34.77;101875.41;5053064;28;20021;-75
2022/06/18 09:33:08;;;;;;;5.25;1.80;;;;;;;32.75;34.45;101884.25;5052519;28;20059;-75
2022/06/18 09:35:45;;;;;;;5.68;1.73;;;;;;;32.99;34.65;101884.72;5052500;28;20048;-77
2022/06/18 09:38:36;;;;;;;2.47;1.40;;;;;;;32.43;35.60;101892.50;5051991;28;20055;-75
2022/06/18 09:41:15;;;;;;;5.55;2.00;;;;;;;31.91;36.71;101889.19;5050826;28;20021;-75
2022/06/18 09:43:48;;;;;;;9.32;1.80;;;;;;;31.85;37.03;101887.47;5052552;28;20074;-75
2022/06/18 09:46:24;;;;;;;2.72;1.77;;;;;;;31.77;36.74;101888.75;5052283;28;20033;-75
2022/06/18 09:48:50;;;;;;;9.52;2.13;;;;;;;31.98;36.55;101887.06;5052278;28;20032;-75
2022/06/18 09:51:20;;;;;;;5.38;2.08;;;;;;;32.09;36.53;101871.50;5052076;28;20037;-77
2022/06/18 09:53:46;;;;;;;;;;;;;;;32.34;37.00;101875.63;5052020;28;20058;-76
2022/06/18 09:56:50;;;;;;;4.35;1.60;;;;;;;32.69;36.35;101874.28;5050306;28;19921;-76
2022/06/18 09:59:23;;;;;;;4.55;1.75;;;;;;;32.95;35.23;101867.03;5050561;28;20036;-75
2022/06/18 10:01:55;;;;;;;4.88;1.80;;;;;;;32.97;34.71;101873.13;5050423;28;20029;-73
2022/06/18 10:07:25;;;;;;;5.28;1.63;;;;;;;32.12;36.26;101865.50;5051956;28;20047;-77
2022/06/18 10:09:56;;;;;;;7.10;1.90;;;;;;;32.05;35.82;101856.56;5052088;28;20056;-77
2022/06/18 10:12:31;;;;;;;;;;;;;;;32.19;37.51;101864.44;5051185;28;20445;-76
2022/06/18 10:14:59;;;;;;;5.10;1.80;;;;;;;31.44;38.01;101862.16;5052858;28;20009;-78
2022/06/18 10:17:53;;;;;;;5.97;1.70;;;;;;;29.76;42.24;101857.16;5057580;28;20139;-76
2022/06/18 10:20:21;;;;;;;8.82;2.50;;;;;;;28.93;43.91;101861.88;5047059;28;20486;-78
2022/06/18 10:22:57;;;;;;;8.68;2.13;;;;;;;28.36;45.63;101854.97;5051553;28;20124;-77
2022/06/18 10:25:45;;;;;;;7.15;2.20;;;;;;;27.96;46.69;101850.94;5051705;28;20171;-77
2022/06/18 10:28:13;;;;;;;7.63;2.10;;;;;;;27.75;47.21;101854.13;5051702;28;20112;-76
2022/06/18 10:30:43;;;;;;;8.68;1.88;;;;;;;26.84;48.64;101837.41;5051177;28;20061;-80
2022/06/18 10:33:23;;;;;;;7.00;2.90;;;;;;;27.03;49.07;101841.03;5051210;28;20025;-77
2022/06/18 10:36:07;;;;;;;8.70;2.22;;;;;;;26.91;50.91;101839.03;5050681;28;20417;-75
2022/06/18 10:39:06;;;;;;;3.05;1.83;;;;;;;27.03;51.15;101844.56;5051038;28;20025;-76
2022/06/18 10:41:43;;;;;;;6.57;2.00;;;;;;;27.33;51.32;101841.16;5046049;28;20029;-76
2022/06/18 10:44:14;;;;;;;6.45;2.22;;;;;;;27.60;51.06;101835.38;5050340;28;20433;-79
2022/06/18 10:46:40;;;;;;;8.07;2.30;;;;;;;27.78;49.11;101848.19;5051291;28;20052;-76
2022/06/18 10:49:06;;;;;;;5.78;2.25;;;;;;;28.01;48.12;101839.31;5051362;28;20025;-80
2022/06/18 10:51:45;;;;;;;5.78;2.10;;;;;;;28.06;48.30;101833.94;5050029;28;20582;-78
2022/06/18 10:54:11;;;;;;;8.02;2.72;;;;;;;27.63;48.56;101832.19;5051303;28;20076;-76
2022/06/18 10:56:55;;;;;;;6.90;2.40;;;;;;;27.36;49.61;101835.22;5049641;28;20110;-77
2022/06/18 10:59:36;;;;;;;6.10;2.35;;;;;;;27.00;49.55;101836.84;5050928;28;20029;-80
2022/06/18 11:02:32;;;;;;;8.52;2.70;;;;;;;26.94;51.37;101828.72;5051263;28;20021;-79
2022/06/18 11:05:03;;;;;;;9.45;2.30;;;;;;;26.96;51.16;101832.91;5047795;28;20033;-76
2022/06/18 11:07:31;;;;;;;10.32;2.63;;;;;;;27.02;52.61;101829.28;5050915;28;20032;-78
2022/06/18 11:10:20;;;;;;;7.38;2.63;;;;;;;27.13;51.44;101833.16;5050265;28;20041;-76
2022/06/18 11:12:52;;;;;;;9.45;3.22;;;;;;;27.44;51.55;101824.00;5050468;28;20075;-76
2022/06/18 11:15:29;;;;;;;10.15;2.60;;;;;;;27.41;51.13;101819.00;5050672;28;20028;-77
2022/06/18 11:17:54;;;;;;;7.10;3.13;;;;;;;27.79;51.01;101822.53;5050527;28;20029;-77
2022/06/18 11:20:25;;;;;;;10.23;3.25;;;;;;;27.99;49.92;101816.81;5051099;28;20036;-77
2022/06/18 11:22:57;;;;;;;7.07;2.45;;;;;;;28.07;50.43;101811.00;5048890;28;20028;-78
2022/06/18 11:25:43;;;;;;;7.30;2.50;;;;;;;28.44;48.51;101816.34;5048973;28;20026;-77
2022/06/18 11:28:21;;;;;;;9.00;2.55;;;;;;;28.68;47.93;101802.72;5050175;28;20124;-76
2022/06/18 11:30:49;;;;;;;7.20;2.55;;;;;;;28.84;46.76;101802.00;5050243;28;20040;-79
2022/06/18 11:33:29;;;;;;;7.18;2.72;;;;;;;28.81;46.62;101807.97;5050440;28;20028;-77
2022/06/18 11:35:55;;;;;;;;;;;;;;;28.99;46.57;101801.53;5050239;28;20033;-76
2022/06/18 11:38:27;;;;;;;15.70;2.88;;;;;;;29.25;46.84;101804.84;5050217;28;20253;-79
2022/06/18 11:40:55;;;;;;;10.18;2.55;;;;;;;29.48;45.45;101816.81;5050676;28;20021;-78
2022/06/18 11:43:38;;;;;;;7.10;2.20;;;;;;;28.99;46.19;101809.75;5050687;28;20181;-77
2022/06/18 11:46:12;;;;;;;5.80;1.90;;;;;;;29.10;47.29;101807.22;5050584;28;20029;-76
2022/06/18 11:48:53;;;;;;;6.15;2.10;;;;;;;28.96;46.37;101798.41;5049534;28;20080;-79